Bowmanville, Canada
Current Conditions -  °F | °C
As of 8:00 PM on Wednesday 22 Oct 2014 (Local Time) from CYOO Reporting Station
Overcast Overcast  
Wind Chill: 50°   Ceiling: 5500
Heat Index: 50°   Visibility: 9mi
Dew Point: 45°   Wind: 3mph
Humidity: 82%   Direction: 120°ESE
Pressure: 30.22"   Gusts: NA
Location:  43.91°N, 78.69°W
Report Text: CYOO 230000Z AUTO 12003KT 9SM OVC055 10/07 A3022 RMK SLP238
Loading
Personal Weather Stations






























Interactive Weather Map New forecast layout! Learn more

10-Day Weather Forecast

Advertisements
Track Severe Weather on mobile